createdAt,value
2018-08-16T00:01:52.558Z,18.08
2018-08-16T00:06:52.765Z,18.28
2018-08-16T00:11:52.261Z,18.38
2018-08-16T00:16:52.509Z,18.08
2018-08-16T00:21:52.788Z,18.08
2018-08-16T00:26:52.547Z,18.28
2018-08-16T00:31:52.797Z,18.08
2018-08-16T00:36:52.290Z,17.68
2018-08-16T00:41:52.583Z,17.58
2018-08-16T00:46:52.800Z,17.28
2018-08-16T00:51:52.320Z,17.48
2018-08-16T00:56:52.798Z,17.68
2018-08-16T01:01:52.305Z,17.58
2018-08-16T01:06:52.662Z,17.48
2018-08-16T01:11:52.830Z,17.18
2018-08-16T01:16:52.263Z,17.38
2018-08-16T01:21:52.644Z,17.18
2018-08-16T01:26:52.321Z,17.28
2018-08-16T01:31:52.624Z,17.18
2018-08-16T01:36:52.926Z,17.18
2018-08-16T01:41:52.387Z,16.88
2018-08-16T01:46:52.614Z,16.78
2018-08-16T01:51:52.910Z,16.58
2018-08-16T01:56:52.645Z,16.88
2018-08-16T02:01:52.880Z,16.38
2018-08-16T02:06:52.438Z,16.78
2018-08-16T02:11:52.591Z,16.68
2018-08-16T02:16:52.906Z,16.68
2018-08-16T02:21:52.397Z,16.88
2018-08-16T02:26:52.885Z,16.38
2018-08-16T02:31:52.239Z,16.08
2018-08-16T02:36:52.744Z,15.88
2018-08-16T02:41:52.802Z,15.78
2018-08-16T02:46:52.199Z,15.88
2018-08-16T02:51:52.756Z,16.28
2018-08-16T02:56:52.399Z,16.28
2018-08-16T03:01:52.685Z,15.98
2018-08-16T03:06:52.991Z,15.78
2018-08-16T03:11:52.402Z,15.98
2018-08-16T03:16:52.703Z,15.78
2018-08-16T03:21:53.012Z,16.18
2018-08-16T03:26:52.767Z,15.78
2018-08-16T03:31:53.030Z,15.48
2018-08-16T03:36:52.533Z,15.18
2018-08-16T03:41:52.995Z,15.08
2018-08-16T03:46:53.022Z,15.38
2018-08-16T03:51:52.576Z,15.18
2018-08-16T03:56:51.894Z,15.68
2018-08-16T04:01:52.497Z,16.08
2018-08-16T04:06:52.907Z,16.18
2018-08-16T04:11:52.045Z,15.38
2018-08-16T04:16:52.507Z,15.08
2018-08-16T04:21:52.868Z,15.08
2018-08-16T04:26:52.554Z,15.18
2018-08-16T04:31:52.869Z,15.08
2018-08-16T04:36:52.215Z,15.08
2018-08-16T04:41:52.672Z,15.18
2018-08-16T04:46:52.812Z,15.68
2018-08-16T04:51:52.091Z,15.98
2018-08-16T04:56:52.972Z,14.98
2018-08-16T05:01:51.976Z,14.98
2018-08-16T05:06:52.653Z,15.18
2018-08-16T05:11:52.387Z,15.58
2018-08-16T05:16:52.724Z,15.88
2018-08-16T05:21:53.111Z,15.98
2018-08-16T05:26:52.730Z,15.88
2018-08-16T05:31:52.947Z,16.08
2018-08-16T05:36:52.477Z,16.38
2018-08-16T05:41:52.701Z,16.28
2018-08-16T05:46:52.974Z,16.28
2018-08-16T05:51:53.070Z,16.38
2018-08-16T05:56:53.005Z,16.58
2018-08-16T06:01:52.070Z,16.98
2018-08-16T06:06:52.817Z,16.48
2018-08-16T06:11:52.996Z,16.48
2018-08-16T06:16:52.203Z,16.58
2018-08-16T06:21:52.753Z,16.88
2018-08-16T06:26:52.215Z,17.08
2018-08-16T06:31:52.666Z,16.98
2018-08-16T06:36:53.094Z,17.38
2018-08-16T06:41:52.105Z,17.48
2018-08-16T06:46:52.561Z,17.78
2018-08-16T06:51:53.069Z,18.08
2018-08-16T06:56:52.698Z,18.08
2018-08-16T07:01:53.027Z,18.08
2018-08-16T07:06:52.409Z,18.28
2018-08-16T07:11:52.776Z,18.58
2018-08-16T07:16:53.381Z,18.68
2018-08-16T07:21:52.287Z,18.78
2018-08-16T07:26:53.070Z,18.78
2018-08-16T07:31:52.166Z,18.88
2018-08-16T07:36:52.854Z,19.28
2018-08-16T07:41:53.087Z,19.38
2018-08-16T07:46:52.059Z,19.58
2018-08-16T07:51:52.950Z,19.88
2018-08-16T07:56:52.356Z,20.08
2018-08-16T08:01:52.604Z,20.28
2018-08-16T08:06:53.170Z,20.48
2018-08-16T08:11:52.087Z,20.58
2018-08-16T08:16:52.630Z,20.78
2018-08-16T08:21:53.119Z,20.88
2018-08-16T08:26:52.692Z,20.98
2018-08-16T08:31:52.978Z,21.58
2018-08-16T08:36:52.253Z,21.87
2018-08-16T08:41:52.659Z,22.03
2018-08-16T08:46:52.942Z,22.32
2018-08-16T08:51:52.139Z,22.58
2018-08-16T08:56:53.008Z,22.68
2018-08-16T09:01:51.992Z,22.73
2018-08-16T09:06:52.903Z,22.61
2018-08-16T09:11:53.416Z,22.98
2018-08-16T09:16:52.442Z,23.38
2018-08-16T09:21:52.770Z,23.57
2018-08-16T09:26:52.168Z,23.70
2018-08-16T09:31:52.597Z,23.54
2018-08-16T09:36:53.077Z,23.77
2018-08-16T09:41:52.043Z,24.06
2018-08-16T09:46:52.475Z,24.01
2018-08-16T09:51:53.074Z,23.80
2018-08-16T09:56:52.492Z,24.07
2018-08-16T10:01:52.994Z,24.57
2018-08-16T10:06:52.239Z,24.82
2018-08-16T10:11:52.644Z,24.75
2018-08-16T10:16:53.013Z,24.28
2018-08-16T10:21:52.265Z,24.90
2018-08-16T10:26:53.093Z,24.85
2018-08-16T10:31:51.966Z,25.25
2018-08-16T10:36:52.813Z,24.94
2018-08-16T10:41:53.042Z,24.85
2018-08-16T10:46:52.400Z,25.03
2018-08-16T10:51:52.831Z,25.66
2018-08-16T10:56:52.014Z,25.63
2018-08-16T11:01:52.576Z,25.37
2018-08-16T11:06:53.136Z,25.36
2018-08-16T11:11:51.996Z,25.59
2018-08-16T11:16:52.454Z,25.49
2018-08-16T11:21:53.138Z,25.05
2018-08-16T11:26:52.472Z,25.66
2018-08-16T11:31:52.925Z,25.72
2018-08-16T11:36:52.063Z,25.96
2018-08-16T11:41:52.359Z,25.73
2018-08-16T11:46:52.901Z,26.07
2018-08-16T11:51:52.051Z,25.81
2018-08-16T11:56:53.245Z,25.35
2018-08-16T12:01:51.915Z,25.44
2018-08-16T12:06:52.521Z,25.64
2018-08-16T12:11:52.987Z,25.66
2018-08-16T12:16:51.908Z,25.73
2018-08-16T12:21:52.545Z,24.91
2018-08-16T12:26:51.909Z,25.40
2018-08-16T12:31:52.558Z,25.37
2018-08-16T12:36:53.044Z,25.54
2018-08-16T12:41:53.541Z,25.73
2018-08-16T12:46:52.150Z,25.55
2018-08-16T12:51:52.984Z,25.56
2018-08-16T12:56:52.165Z,25.82
2018-08-16T13:01:52.926Z,25.56
2018-08-16T13:06:51.983Z,25.01
2018-08-16T13:11:52.182Z,25.44
2018-08-16T13:16:52.619Z,25.42
2018-08-16T13:21:51.923Z,25.50
2018-08-16T13:26:52.767Z,24.83
2018-08-16T13:31:51.846Z,25.31
2018-08-16T13:36:52.371Z,25.45
2018-08-16T13:41:52.782Z,25.33
2018-08-16T13:46:51.831Z,25.47
2018-08-16T13:51:52.218Z,25.69
2018-08-16T13:56:51.851Z,25.51
2018-08-16T14:01:52.418Z,25.40
2018-08-16T14:06:52.964Z,24.83
2018-08-16T14:11:51.852Z,24.39
2018-08-16T14:16:52.158Z,24.92
2018-08-16T14:21:53.150Z,24.60
2018-08-16T14:26:52.708Z,24.77
2018-08-16T14:31:52.851Z,24.91
2018-08-16T14:36:51.933Z,24.72
2018-08-16T14:41:52.159Z,25.40
2018-08-16T14:46:53.307Z,24.75
2018-08-16T14:51:52.611Z,25.11
2018-08-16T14:56:52.617Z,25.11
2018-08-16T15:01:53.023Z,24.38
2018-08-16T15:06:52.305Z,24.59
2018-08-16T15:11:53.227Z,23.81
2018-08-16T15:16:51.825Z,23.70
2018-08-16T15:21:52.298Z,23.94
2018-08-16T15:26:56.937Z,23.34
2018-08-16T15:31:52.198Z,23.64
2018-08-16T15:36:53.212Z,23.81
2018-08-16T15:41:53.475Z,23.52
2018-08-16T15:46:52.133Z,23.41
2018-08-16T15:51:52.689Z,23.58
2018-08-16T15:56:52.182Z,23.58
2018-08-16T16:01:52.547Z,23.48
2018-08-16T16:06:57.388Z,23.32
2018-08-16T16:11:53.573Z,23.20
2018-08-16T16:16:52.992Z,23.58
2018-08-16T16:21:51.929Z,23.00
2018-08-16T16:26:53.536Z,23.46
2018-08-16T16:31:51.841Z,23.44
2018-08-16T16:36:52.289Z,23.29
2018-08-16T16:41:53.452Z,23.20
2018-08-16T16:46:51.828Z,22.66
2018-08-16T16:51:52.328Z,23.08
2018-08-16T16:56:52.490Z,23.03
2018-08-16T17:01:52.647Z,23.22
2018-08-16T17:06:52.922Z,22.77
2018-08-16T17:11:52.782Z,23.30
2018-08-16T17:16:52.185Z,23.06
2018-08-16T17:21:52.817Z,22.65
2018-08-16T17:26:52.221Z,22.68
2018-08-16T17:31:52.510Z,22.68
2018-08-16T17:36:57.270Z,22.80
2018-08-16T17:41:52.173Z,22.20
2018-08-16T17:46:52.448Z,22.61
2018-08-16T17:51:52.343Z,22.32
2018-08-16T17:56:52.536Z,22.57
2018-08-16T18:01:51.842Z,22.14
2018-08-16T18:06:52.336Z,22.01
2018-08-16T18:11:52.562Z,21.88
2018-08-16T18:16:51.880Z,21.86
2018-08-16T18:21:53.284Z,21.58
2018-08-16T18:26:51.868Z,21.60
2018-08-16T18:31:52.128Z,21.57
2018-08-16T18:36:53.502Z,21.72
2018-08-16T18:41:51.856Z,21.61
2018-08-16T18:46:52.134Z,21.89
2018-08-16T18:51:52.564Z,21.72
2018-08-16T18:56:52.192Z,21.69
2018-08-16T19:01:52.485Z,21.73
2018-08-16T19:06:51.979Z,21.75
2018-08-16T19:11:52.248Z,21.75
2018-08-16T19:16:52.952Z,21.97
2018-08-16T19:21:51.975Z,22.08
2018-08-16T19:26:52.594Z,22.15
2018-08-16T19:31:51.993Z,22.33
2018-08-16T19:36:52.711Z,22.12
2018-08-16T19:41:52.580Z,22.26
2018-08-16T19:46:51.915Z,22.31
2018-08-16T19:51:52.353Z,22.25
2018-08-16T19:56:51.905Z,22.07
2018-08-16T20:01:52.187Z,22.02
2018-08-16T20:06:52.765Z,22.17
2018-08-16T20:11:52.311Z,22.41
2018-08-16T20:16:52.243Z,22.41
2018-08-16T20:21:52.655Z,22.45
2018-08-16T20:26:52.671Z,22.16
2018-08-16T20:31:52.595Z,21.84
2018-08-16T20:36:52.052Z,21.66
2018-08-16T20:41:52.346Z,21.36
2018-08-16T20:46:52.623Z,21.54
2018-08-16T20:51:51.999Z,21.23
2018-08-16T20:56:52.604Z,21.23
2018-08-16T21:01:51.896Z,21.12
2018-08-16T21:06:52.370Z,21.21
2018-08-16T21:11:52.600Z,21.44
2018-08-16T21:16:51.935Z,21.10
2018-08-16T21:21:52.488Z,20.79
2018-08-16T21:26:51.913Z,20.70
2018-08-16T21:31:52.182Z,20.60
2018-08-16T21:36:52.622Z,20.62
2018-08-16T21:41:51.859Z,20.69
2018-08-16T21:46:52.117Z,21.14
2018-08-16T21:51:53.162Z,20.42
2018-08-16T21:56:52.194Z,20.27
2018-08-16T22:01:52.478Z,20.37
2018-08-16T22:06:52.014Z,20.77
2018-08-16T22:11:52.180Z,20.24
2018-08-16T22:16:53.178Z,19.88
2018-08-16T22:21:51.974Z,19.68
2018-08-16T22:26:52.550Z,19.78
2018-08-16T22:31:56.875Z,19.78
2018-08-16T22:36:52.286Z,20.28
2018-08-16T22:41:52.495Z,20.08
2018-08-16T22:46:51.831Z,19.48
2018-08-16T22:51:52.756Z,19.88
2018-08-16T22:56:51.876Z,20.08
2018-08-16T23:01:52.138Z,19.78
2018-08-16T23:06:52.642Z,19.18
2018-08-16T23:11:51.859Z,19.38
2018-08-16T23:16:52.532Z,19.58
2018-08-16T23:21:52.613Z,19.78
2018-08-16T23:26:52.163Z,19.48
2018-08-16T23:31:52.442Z,18.78
2018-08-16T23:36:52.350Z,19.18
2018-08-16T23:41:52.765Z,18.98
2018-08-16T23:46:53.165Z,19.18
2018-08-16T23:51:51.919Z,19.18
2018-08-16T23:56:53.078Z,19.58
